Time;durP1;ratioP1;P1;durP2;ratioP2;P2;SDS_P1;SDS_P2;PMS_P1;PMS_P2;Temp;Humidity;BMP_temperature;BMP_pressure;BME280_temperature;BME280_humidity;BME280_pressure;Samples;Min_cycle;Max_cycle;Signal;HPM_P1;HPM_P2
2022/05/14 00:00:19;;;;;;;10.20;2.47;;;;;;;12.38;76.54;101832.00;5023073;28;20088;-68
2022/05/14 00:02:45;;;;;;;8.52;2.28;;;;;;;12.34;76.54;101835.84;5021821;28;20426;-68
2022/05/14 00:05:11;;;;;;;4.63;2.08;;;;;;;12.30;77.00;101831.91;5022280;28;22145;-68
2022/05/14 00:07:37;;;;;;;8.45;2.33;;;;;;;12.30;76.94;101837.09;5023434;28;20041;-68
2022/05/14 00:10:04;;;;;;;7.35;2.38;;;;;;;12.24;76.91;101830.69;5023187;28;20053;-69
2022/05/14 00:15:13;;;;;;;9.23;2.30;;;;;;;12.16;77.35;101845.34;5022346;28;20056;-69
2022/05/14 00:17:39;;;;;;;5.05;2.25;;;;;;;12.12;77.59;101844.81;5022438;28;20022;-67
2022/05/14 00:20:05;;;;;;;6.97;3.03;;;;;;;12.11;77.46;101843.19;5023905;28;20442;-69
2022/05/14 00:22:31;;;;;;;7.28;2.92;;;;;;;12.10;77.49;101838.94;5020396;28;20029;-69
2022/05/14 00:24:56;;;;;;;8.30;2.67;;;;;;;12.07;77.60;101841.78;5021331;28;20083;-68
2022/05/14 00:27:22;;;;;;;8.52;3.10;;;;;;;12.03;77.56;101837.84;5023789;28;20034;-68
2022/05/14 00:29:48;;;;;;;7.88;3.03;;;;;;;11.99;78.02;101839.09;5020454;28;20029;-68
2022/05/14 00:32:14;;;;;;;13.88;2.80;;;;;;;11.96;78.08;101836.75;5021699;28;20484;-68
2022/05/14 00:34:39;;;;;;;6.28;2.40;;;;;;;11.92;78.36;101836.22;5022812;28;20063;-68
2022/05/14 00:37:05;;;;;;;8.73;2.50;;;;;;;11.90;78.10;101834.72;5017759;28;20042;-68
2022/05/14 00:39:30;;;;;;;9.18;2.70;;;;;;;11.85;78.34;101827.31;5021464;28;20411;-69
2022/05/14 00:41:56;;;;;;;10.93;2.80;;;;;;;11.80;78.53;101832.13;5018254;28;20748;-68
2022/05/14 00:44:21;;;;;;;4.85;2.42;;;;;;;11.74;78.66;101828.28;5020387;28;20036;-68
2022/05/14 00:46:55;;;;;;;9.50;2.75;;;;;;;11.68;78.83;101836.66;5019689;28;20030;-68
2022/05/14 00:49:23;;;;;;;7.30;2.70;;;;;;;11.63;79.23;101828.44;5021100;28;20029;-68
2022/05/14 00:51:49;;;;;;;4.97;2.20;;;;;;;11.59;79.10;101834.88;5020327;28;20107;-68
2022/05/14 00:54:19;;;;;;;8.88;3.10;;;;;;;11.53;79.26;101832.78;5018399;28;20029;-69
2022/05/14 00:56:50;;;;;;;5.20;2.47;;;;;;;11.48;79.54;101834.03;5022180;28;20045;-68
2022/05/14 00:59:19;;;;;;;10.63;3.38;;;;;;;11.43;80.01;101836.25;5019196;28;20037;-68
2022/05/14 01:01:46;;;;;;;9.07;2.50;;;;;;;11.39;80.17;101829.66;5020141;28;20033;-68
2022/05/14 01:04:12;;;;;;;9.38;2.70;;;;;;;11.37;80.17;101831.56;5020174;28;20061;-68
2022/05/14 01:06:41;;;;;;;5.47;2.72;;;;;;;11.35;80.34;101832.66;5021588;28;20057;-68
2022/05/14 01:09:07;;;;;;;11.07;2.70;;;;;;;11.32;79.93;101836.38;5021568;28;20087;-68
2022/05/14 01:11:36;;;;;;;4.78;2.40;;;;;;;11.30;79.95;101830.47;5024335;28;20042;-68
2022/05/14 01:14:03;;;;;;;7.93;2.50;;;;;;;11.25;80.25;101830.06;5019588;28;20069;-68
2022/05/14 01:16:32;;;;;;;9.13;2.88;;;;;;;11.24;80.24;101831.81;5036582;28;20030;-68
2022/05/14 01:18:59;;;;;;;9.00;3.03;;;;;;;11.19;80.39;101828.84;5026007;28;20049;-68
2022/05/14 01:21:55;;;;;;;3.47;2.13;;;;;;;11.17;80.63;101837.69;5023823;28;20097;-68
2022/05/14 01:27:28;;;;;;;6.00;2.47;;;;;;;11.12;80.40;101832.91;5022482;28;20048;-68
2022/05/14 01:29:54;;;;;;;9.38;2.55;;;;;;;11.12;80.42;101837.31;5024950;28;20041;-68
2022/05/14 01:32:20;;;;;;;6.35;2.53;;;;;;;11.07;80.12;101835.91;5025030;28;20384;-68
2022/05/14 01:34:46;;;;;;;9.02;2.85;;;;;;;11.02;80.34;101843.28;5033542;28;20033;-68
2022/05/14 01:37:14;;;;;;;5.13;2.30;;;;;;;10.97;80.32;101839.44;5025180;28;20041;-68
2022/05/14 01:39:41;;;;;;;10.23;3.08;;;;;;;10.94;80.18;101834.50;5022038;28;20029;-68
2022/05/14 01:42:07;;;;;;;7.43;2.47;;;;;;;10.85;80.51;101836.97;5024716;28;20025;-68
2022/05/14 01:44:33;;;;;;;8.77;3.13;;;;;;;10.78;80.40;101843.63;5029305;28;20025;-68
2022/05/14 01:46:59;;;;;;;10.45;3.30;;;;;;;10.77;80.59;101841.97;5024567;28;20040;-68
2022/05/14 01:49:25;;;;;;;11.05;3.10;;;;;;;10.74;79.56;101833.63;5023164;28;20038;-68
2022/05/14 01:51:54;;;;;;;8.10;2.50;;;;;;;10.72;79.66;101836.38;5007618;28;20053;-68
2022/05/14 01:54:19;;;;;;;7.65;2.42;;;;;;;10.71;79.39;101840.72;5003064;28;20051;-68
2022/05/14 01:56:45;;;;;;;3.97;2.10;;;;;;;10.74;79.22;101838.81;5026066;28;20575;-68
2022/05/14 01:59:11;;;;;;;8.85;2.50;;;;;;;10.72;78.80;101838.97;5017502;28;20029;-68
2022/05/14 02:01:38;;;;;;;8.27;2.33;;;;;;;10.71;78.87;101832.13;5022339;28;20140;-69
2022/05/14 02:04:10;;;;;;;6.68;2.15;;;;;;;10.68;78.89;101843.59;5008759;28;20120;-68
2022/05/14 02:06:36;;;;;;;4.95;2.20;;;;;;;10.68;78.89;101845.34;5027192;28;20274;-68
2022/05/14 02:09:05;;;;;;;11.98;2.45;;;;;;;10.66;78.65;101840.31;5022663;28;20056;-68
2022/05/14 02:11:31;;;;;;;7.20;2.60;;;;;;;10.66;78.17;101829.09;5020505;28;20052;-68
2022/05/14 02:14:05;;;;;;;7.40;2.15;;;;;;;10.64;77.95;101833.59;5021801;28;20111;-68
2022/05/14 02:16:30;;;;;;;9.20;2.50;;;;;;;10.61;77.73;101829.50;5022826;28;20062;-68
2022/05/14 02:18:56;;;;;;;4.30;2.47;;;;;;;10.61;77.90;101834.69;5022744;28;20040;-68
2022/05/14 02:21:24;;;;;;;6.95;2.13;;;;;;;10.59;78.16;101831.41;5020578;28;20631;-68
2022/05/14 02:23:52;;;;;;;7.35;2.28;;;;;;;10.58;78.17;101839.31;5003951;28;20508;-68
2022/05/14 02:26:18;;;;;;;5.03;1.80;;;;;;;10.52;78.26;101836.28;5023281;28;20037;-68
2022/05/14 02:28:45;;;;;;;8.48;2.22;;;;;;;10.50;78.97;101845.16;5008867;28;20024;-68
2022/05/14 02:31:11;;;;;;;7.70;2.30;;;;;;;10.46;79.23;101839.41;5022327;28;20490;-69
2022/05/14 02:33:37;;;;;;;12.32;2.40;;;;;;;10.43;79.32;101844.03;5017444;28;20387;-69
2022/05/14 02:36:07;;;;;;;5.85;2.60;;;;;;;10.41;79.33;101846.75;5033336;28;20038;-68
2022/05/14 02:38:35;;;;;;;5.20;2.00;;;;;;;10.40;79.28;101846.91;5021424;28;20040;-68
2022/05/14 02:41:01;;;;;;;6.32;2.05;;;;;;;10.37;79.54;101841.97;5024909;28;20033;-68
2022/05/14 02:43:27;;;;;;;9.80;2.38;;;;;;;10.33;79.62;101851.78;5005018;28;20091;-68
2022/05/14 02:45:53;;;;;;;5.72;2.38;;;;;;;10.30;79.43;101851.97;5022956;28;20036;-69
2022/05/14 02:48:18;;;;;;;6.00;2.30;;;;;;;10.24;79.92;101853.31;5019406;28;20503;-68
2022/05/14 02:50:44;;;;;;;3.78;2.00;;;;;;;10.21;79.96;101840.63;5024475;28;20025;-68
2022/05/14 02:53:11;;;;;;;12.07;2.63;;;;;;;10.19;79.38;101846.88;5021331;28;20040;-68
2022/05/14 02:55:36;;;;;;;7.53;2.22;;;;;;;10.15;79.88;101848.91;5023035;28;20033;-68
2022/05/14 02:58:02;;;;;;;10.95;2.17;;;;;;;10.10;80.17;101851.88;5038181;28;20029;-68
2022/05/14 03:00:28;;;;;;;6.72;2.45;;;;;;;10.09;80.30;101846.81;5023584;28;20079;-68
2022/05/14 03:02:55;;;;;;;9.38;2.28;;;;;;;10.08;80.41;101843.41;5022349;28;20025;-68
2022/05/14 03:05:22;;;;;;;3.25;1.80;;;;;;;10.07;80.29;101849.53;5004729;28;20041;-68
2022/05/14 03:07:47;;;;;;;6.80;2.50;;;;;;;10.05;80.08;101843.66;5022367;28;20044;-69
2022/05/14 03:10:13;;;;;;;7.05;2.38;;;;;;;10.02;80.22;101850.88;5024297;28;20044;-68
2022/05/14 03:12:40;;;;;;;6.05;2.25;;;;;;;10.01;80.70;101844.06;5021894;28;20041;-67
2022/05/14 03:15:07;;;;;;;7.18;2.13;;;;;;;10.00;80.55;101842.41;5022053;28;20057;-68
2022/05/14 03:17:34;;;;;;;6.32;2.33;;;;;;;9.98;80.49;101846.88;5024873;28;20083;-68
2022/05/14 03:20:06;;;;;;;7.45;2.10;;;;;;;9.94;80.63;101848.91;5026694;28;21620;-68
2022/05/14 03:22:34;;;;;;;11.52;2.50;;;;;;;9.90;80.46;101850.94;5035660;28;20029;-68
2022/05/14 03:25:00;;;;;;;12.52;2.47;;;;;;;9.86;80.96;101843.53;5022615;28;20544;-69
2022/05/14 03:27:25;;;;;;;6.05;2.33;;;;;;;9.85;80.82;101844.47;5020302;28;20041;-68
2022/05/14 03:29:51;;;;;;;6.47;2.28;;;;;;;9.82;80.92;101845.56;5021232;28;20340;-68
2022/05/14 03:32:17;;;;;;;5.47;2.30;;;;;;;9.79;80.96;101837.22;5019816;28;20034;-68
2022/05/14 03:34:42;;;;;;;7.03;2.63;;;;;;;9.74;81.21;101833.25;5020937;28;20120;-68
2022/05/14 03:37:08;;;;;;;10.25;2.47;;;;;;;9.70;81.22;101831.84;5023252;28;20658;-68
2022/05/14 03:39:34;;;;;;;13.73;3.70;;;;;;;9.70;81.43;101833.59;5005207;28;20279;-69
2022/05/14 03:42:00;;;;;;;7.63;2.10;;;;;;;9.69;81.27;101832.78;5020559;28;20025;-68
2022/05/14 03:44:25;;;;;;;6.05;2.33;;;;;;;9.68;81.33;101841.50;5022406;28;20033;-68
2022/05/14 03:46:51;;;;;;;9.32;3.00;;;;;;;9.63;81.19;101830.69;5022753;28;20057;-68
2022/05/14 03:49:17;;;;;;;7.65;2.45;;;;;;;9.63;81.33;101848.00;5017283;28;20063;-68
2022/05/14 03:51:43;;;;;;;8.57;2.58;;;;;;;9.63;81.25;101841.06;5021802;28;20120;-68
2022/05/14 03:54:09;;;;;;;8.43;2.90;;;;;;;9.66;81.08;101850.34;5017044;28;20037;-69
2022/05/14 03:56:39;;;;;;;7.18;2.30;;;;;;;9.67;80.91;101845.03;5019873;28;20124;-68
2022/05/14 03:59:09;;;;;;;7.68;2.67;;;;;;;9.67;80.85;101846.81;5033465;28;20136;-69
2022/05/14 04:01:35;;;;;;;7.50;2.33;;;;;;;9.67;81.05;101852.81;5035074;28;20025;-68
2022/05/14 04:04:02;;;;;;;7.72;2.28;;;;;;;9.64;81.05;101841.88;5021474;28;20543;-69
2022/05/14 04:06:28;;;;;;;6.75;3.10;;;;;;;9.63;81.21;101848.81;5017902;28;20496;-68
2022/05/14 04:08:53;;;;;;;7.72;2.67;;;;;;;9.61;81.25;101855.91;5021753;28;20043;-68
2022/05/14 04:11:19;;;;;;;8.88;2.70;;;;;;;9.61;81.24;101849.91;5019112;28;20028;-68
2022/05/14 04:13:46;;;;;;;12.68;3.38;;;;;;;9.61;81.00;101855.09;5021687;28;20034;-68
2022/05/14 04:16:12;;;;;;;6.43;2.78;;;;;;;9.60;80.73;101859.41;5017769;28;20041;-68
2022/05/14 04:18:38;;;;;;;9.90;2.78;;;;;;;9.61;80.93;101858.50;5021625;28;20397;-69
2022/05/14 04:21:04;;;;;;;10.82;2.88;;;;;;;9.61;81.14;101855.09;5021859;28;20037;-68
2022/05/14 04:23:31;;;;;;;6.20;2.42;;;;;;;9.62;81.05;101857.53;5021219;28;20030;-68
2022/05/14 04:25:59;;;;;;;9.88;2.85;;;;;;;9.65;80.85;101857.28;5035263;28;20156;-68
2022/05/14 04:28:25;;;;;;;9.23;2.40;;;;;;;9.68;80.83;101848.44;5022991;28;20079;-68
2022/05/14 04:30:52;;;;;;;7.35;2.95;;;;;;;9.67;81.11;101858.00;5021295;28;20033;-68
2022/05/14 04:33:19;;;;;;;7.55;2.97;;;;;;;9.69;80.97;101856.09;5021203;28;20573;-69
2022/05/14 04:35:45;;;;;;;6.43;2.97;;;;;;;9.67;81.41;101855.41;5021289;28;20442;-69
2022/05/14 04:38:11;;;;;;;11.10;2.80;;;;;;;9.68;81.38;101861.38;5021374;28;20025;-69
2022/05/14 04:40:38;;;;;;;9.10;2.75;;;;;;;9.69;80.98;101874.22;5021130;28;20534;-68
2022/05/14 04:43:09;;;;;;;9.68;3.05;;;;;;;9.69;80.99;101869.03;5019193;28;20029;-68
2022/05/14 04:45:36;;;;;;;11.85;2.67;;;;;;;9.74;80.73;101877.28;5021730;28;20055;-68
2022/05/14 04:48:02;;;;;;;10.70;2.95;;;;;;;9.74;80.72;101869.50;5020633;28;20037;-68
2022/05/14 04:50:28;;;;;;;9.23;2.10;;;;;;;9.75;80.62;101878.91;5025761;28;20033;-68
2022/05/14 04:52:54;;;;;;;9.10;2.65;;;;;;;9.75;80.50;101872.91;5023661;28;20036;-68
2022/05/14 04:55:19;;;;;;;7.63;2.78;;;;;;;9.77;80.71;101875.38;5025949;28;20045;-69
2022/05/14 04:57:45;;;;;;;8.07;3.08;;;;;;;9.79;80.67;101869.13;5025834;28;20071;-68
2022/05/14 05:00:14;;;;;;;10.70;2.78;;;;;;;9.80;80.54;101875.13;5009724;28;20107;-68
2022/05/14 05:05:25;;;;;;;8.45;2.97;;;;;;;9.87;79.54;101873.66;5037136;28;20030;-68
2022/05/14 05:07:51;;;;;;;8.65;3.17;;;;;;;9.90;79.61;101874.25;5030963;22;20046;-75
2022/05/14 05:10:17;;;;;;;7.57;2.67;;;;;;;9.94;79.59;101877.41;5005308;28;20094;-75
2022/05/14 05:12:43;;;;;;;11.10;2.80;;;;;;;9.98;79.41;101883.16;5003493;28;20374;-75
2022/05/14 05:15:09;;;;;;;7.82;2.90;;;;;;;10.03;79.25;101886.22;5003926;28;20434;-74
2022/05/14 05:17:34;;;;;;;6.18;2.67;;;;;;;10.06;79.21;101881.59;5006942;28;20034;-74
2022/05/14 05:20:00;;;;;;;7.00;2.60;;;;;;;10.18;77.67;101890.13;5045710;22;20041;-85
2022/05/14 05:22:25;;;;;;;6.95;2.42;;;;;;;10.24;78.17;101886.19;5045410;28;20034;-84
2022/05/14 05:24:51;;;;;;;10.20;2.35;;;;;;;10.30;78.13;101878.78;5034139;28;20037;-84
2022/05/14 05:27:16;;;;;;;10.32;3.13;;;;;;;10.34;78.14;101892.31;5030679;28;20083;-85
2022/05/14 05:29:42;;;;;;;13.80;2.90;;;;;;;10.41;77.84;101905.56;5029976;28;20044;-84
2022/05/14 05:32:07;;;;;;;12.88;2.53;;;;;;;10.49;78.00;101903.16;5028079;28;20723;-83
2022/05/14 05:34:33;;;;;;;7.18;2.45;;;;;;;10.54;77.69;101893.22;5032166;28;20120;-83
2022/05/14 05:36:58;;;;;;;4.78;1.92;;;;;;;10.61;77.46;101903.91;5016263;28;20080;-83
2022/05/14 05:39:24;;;;;;;8.65;2.65;;;;;;;10.67;77.68;101903.38;5048652;28;20100;-84
2022/05/14 05:41:49;;;;;;;9.15;2.72;;;;;;;10.82;76.93;101902.09;5029292;28;20586;-83
2022/05/14 05:44:15;;;;;;;9.38;2.70;;;;;;;10.99;76.70;101902.41;5028929;28;20030;-84
2022/05/14 05:46:40;;;;;;;9.27;2.30;;;;;;;11.22;76.04;101903.84;5031060;28;20037;-83
2022/05/14 05:49:06;;;;;;;13.77;3.65;;;;;;;11.49;75.04;101907.59;5027945;28;20029;-83
2022/05/14 05:51:32;;;;;;;9.00;2.13;;;;;;;11.73;73.71;101908.97;5045147;28;20044;-83
2022/05/14 05:56:56;;;;;;;9.82;2.22;;;;;;;12.44;71.71;101913.84;5027421;28;20513;-83
2022/05/14 05:59:22;;;;;;;12.52;2.40;;;;;;;12.80;69.98;101909.59;5028462;28;20041;-84
2022/05/14 06:01:48;;;;;;;5.95;2.35;;;;;;;13.11;68.68;101911.09;5029802;28;20029;-85
2022/05/14 06:04:14;;;;;;;8.57;1.92;;;;;;;13.31;68.15;101914.44;5026775;28;20033;-83
2022/05/14 06:06:42;;;;;;;9.60;2.38;;;;;;;13.58;66.48;101914.41;5012455;28;20078;-84
2022/05/14 06:09:13;;;;;;;6.90;2.28;;;;;;;13.91;65.82;101911.25;5027538;28;20030;-85
2022/05/14 06:11:41;;;;;;;10.68;2.20;;;;;;;14.20;64.50;101905.75;5030301;28;20489;-84
2022/05/14 06:14:07;;;;;;;9.05;2.08;;;;;;;14.26;65.00;101904.31;5010378;28;20037;-83
2022/05/14 06:16:33;;;;;;;9.95;2.10;;;;;;;14.54;62.73;101907.59;5027594;28;20045;-85
2022/05/14 06:18:58;;;;;;;14.98;2.38;;;;;;;14.75;63.05;101912.47;5010920;28;20029;-85
2022/05/14 06:21:25;;;;;;;6.55;2.50;;;;;;;14.99;62.93;101919.56;5029850;28;20033;-85
2022/05/14 06:23:50;;;;;;;8.95;2.38;;;;;;;15.10;62.38;101918.47;5012357;28;20045;-84
2022/05/14 06:26:16;;;;;;;8.50;2.45;;;;;;;15.29;61.43;101917.38;5027971;28;20057;-83
2022/05/14 06:28:41;;;;;;;31.52;4.05;;;;;;;15.44;61.15;101913.16;5026560;28;20028;-84
2022/05/14 06:31:07;;;;;;;9.18;2.22;;;;;;;15.55;60.53;101915.47;5028049;28;20048;-82
2022/05/14 06:33:32;;;;;;;15.57;3.70;;;;;;;15.72;59.50;101911.06;5024518;28;20178;-84
2022/05/14 06:35:58;;;;;;;24.13;3.60;;;;;;;15.67;59.73;101907.31;5026985;28;20521;-83
2022/05/14 06:38:24;;;;;;;12.68;3.03;;;;;;;15.71;60.39;101906.81;5025093;28;20026;-83
2022/05/14 06:40:50;;;;;;;15.43;3.85;;;;;;;15.75;60.47;101917.81;5030624;28;20091;-85
2022/05/14 06:43:16;;;;;;;15.13;3.33;;;;;;;15.83;59.33;101914.38;5027745;28;20037;-84
2022/05/14 06:45:43;;;;;;;11.82;3.40;;;;;;;16.10;59.75;101924.47;5025013;28;20034;-84
2022/05/14 06:48:09;;;;;;;13.48;3.47;;;;;;;16.26;58.18;101923.66;5023582;28;20029;-83
2022/05/14 06:50:41;;;;;;;17.25;2.88;;;;;;;16.39;58.79;101927.53;5023015;28;20477;-84
2022/05/14 06:53:08;;;;;;;13.47;4.20;;;;;;;16.82;57.30;101926.31;5025608;28;20033;-83
2022/05/14 06:55:38;;;;;;;16.02;3.88;;;;;;;16.96;57.47;101916.91;5028019;28;20136;-84
2022/05/14 06:58:09;;;;;;;15.73;3.40;;;;;;;17.24;56.36;101919.88;5042519;28;20033;-84
2022/05/14 07:00:34;;;;;;;10.52;3.10;;;;;;;17.54;56.34;101930.50;5013307;28;20038;-82
2022/05/14 07:08:29;;;;;;;16.42;4.75;;;;;;;18.43;53.62;101920.22;5044964;28;20136;-84
2022/05/14 07:10:54;;;;;;;13.95;3.40;;;;;;;18.85;53.29;101920.59;5024528;28;20044;-83
2022/05/14 07:13:20;;;;;;;14.35;3.90;;;;;;;19.07;51.59;101926.72;5027174;28;20144;-85
2022/05/14 07:15:45;;;;;;;14.73;3.10;;;;;;;19.39;50.23;101924.63;5022894;28;20049;-83
2022/05/14 07:18:11;;;;;;;11.68;3.47;;;;;;;19.70;50.02;101921.66;5022200;28;20064;-83
2022/05/14 07:20:36;;;;;;;11.82;3.42;;;;;;;19.81;50.14;101923.81;5028745;28;20111;-84
2022/05/14 07:23:03;;;;;;;13.55;3.58;;;;;;;19.79;48.92;101922.38;5023223;28;20040;-85
2022/05/14 07:25:28;;;;;;;11.52;3.03;;;;;;;20.03;48.70;101924.59;5025954;28;20037;-84
2022/05/14 07:27:54;;;;;;;11.32;3.70;;;;;;;20.31;48.33;101920.34;5009573;28;20080;-84
2022/05/14 07:30:20;;;;;;;10.63;3.13;;;;;;;20.25;48.97;101927.19;5026128;28;20512;-84
2022/05/14 07:32:46;;;;;;;17.05;4.72;;;;;;;20.31;48.04;101922.97;5022072;28;20129;-84
2022/05/14 07:35:11;;;;;;;17.13;4.10;;;;;;;20.45;49.13;101918.59;5024176;28;20085;-84
2022/05/14 07:37:46;;;;;;;13.18;3.20;;;;;;;20.63;49.20;101916.28;5006814;28;20034;-85
2022/05/14 07:40:17;;;;;;;14.32;3.95;;;;;;;20.95;48.18;101912.13;5042686;28;20037;-84
2022/05/14 07:43:03;;;;;;;11.90;3.92;;;;;;;21.35;46.94;101904.31;5025837;28;20033;-83
2022/05/14 07:45:33;;;;;;;8.95;3.38;;;;;;;21.05;47.69;101905.69;5021784;28;20175;-84
2022/05/14 07:48:01;;;;;;;19.13;4.55;;;;;;;21.16;47.78;101911.19;5026502;28;20071;-83
2022/05/14 07:50:27;;;;;;;12.70;3.80;;;;;;;21.37;47.89;101912.84;5029313;28;21447;-84
2022/05/14 07:52:53;;;;;;;15.23;3.90;;;;;;;21.52;46.36;101910.03;5021988;28;20434;-84
2022/05/14 07:55:18;;;;;;;14.40;4.00;;;;;;;21.93;46.21;101916.16;5026218;28;20045;-85
2022/05/14 07:57:44;;;;;;;14.90;3.97;;;;;;;22.02;44.38;101906.16;5005733;28;20609;-84
2022/05/14 08:00:11;;;;;;;14.13;3.75;;;;;;;21.79;44.68;101912.69;5024017;28;20037;-84
2022/05/14 08:02:43;;;;;;;16.17;4.32;;;;;;;21.91;44.81;101908.41;5041316;28;20029;-84
2022/05/14 08:05:10;;;;;;;15.00;3.83;;;;;;;22.21;44.63;101915.91;5020825;28;20521;-84
2022/05/14 08:07:36;;;;;;;15.25;3.70;;;;;;;22.23;44.69;101908.56;5011693;28;20132;-84
2022/05/14 08:10:03;;;;;;;15.43;3.90;;;;;;;22.37;43.59;101908.56;5011884;28;20080;-85
2022/05/14 08:12:51;;;;;;;12.20;4.68;;;;;;;22.63;43.29;101899.75;5026247;28;20100;-84
2022/05/14 08:15:18;;;;;;;14.00;3.90;;;;;;;22.89;43.36;101898.81;5010184;28;20117;-83
2022/05/14 08:17:44;;;;;;;14.02;3.33;;;;;;;23.04;42.91;101909.13;5026235;28;20052;-84
2022/05/14 08:20:11;;;;;;;18.73;4.78;;;;;;;22.67;43.98;101912.31;5025216;28;20105;-84
2022/05/14 08:25:21;;;;;;;21.52;4.13;;;;;;;23.23;42.67;101896.81;5039631;28;20447;-84
2022/05/14 08:27:47;;;;;;;15.10;3.83;;;;;;;23.51;42.50;101905.13;5028958;28;20037;-83
2022/05/14 08:30:20;;;;;;;13.48;4.32;;;;;;;23.79;42.38;101901.28;5028520;28;20030;-85
2022/05/14 08:32:46;;;;;;;14.70;4.10;;;;;;;23.32;42.24;101909.56;5012158;28;20120;-84
2022/05/14 08:35:12;;;;;;;14.95;4.25;;;;;;;23.02;43.37;101911.13;5026355;28;20132;-85
2022/05/14 08:37:38;;;;;;;16.15;4.43;;;;;;;22.35;43.51;101912.22;5027178;28;20033;-85
2022/05/14 08:40:26;;;;;;;24.63;5.38;;;;;;;21.83;44.86;101908.66;5025720;28;20092;-86
2022/05/14 08:42:56;;;;;;;21.52;4.85;;;;;;;22.39;44.41;101911.81;5041660;28;20467;-85
2022/05/14 08:45:25;;;;;;;14.25;5.05;;;;;;;22.73;44.49;101906.22;5022419;28;20033;-84
2022/05/14 08:47:57;;;;;;;16.77;3.78;;;;;;;22.88;43.95;101899.81;5024345;28;20022;-86
2022/05/14 08:50:30;;;;;;;15.27;3.78;;;;;;;23.41;43.63;101906.63;5024345;28;20117;-85
2022/05/14 08:53:01;;;;;;;15.38;4.88;;;;;;;23.73;42.10;101906.59;5040414;28;20672;-86
2022/05/14 08:55:38;;;;;;;14.65;4.60;;;;;;;23.95;41.78;101904.41;5042376;28;20394;-85
2022/05/14 08:58:36;;;;;;;14.57;4.63;;;;;;;23.78;41.29;101894.31;5025354;28;20029;-85
2022/05/14 09:01:04;;;;;;;13.23;3.55;;;;;;;24.12;41.85;101905.44;5004901;28;20124;-86
2022/05/14 09:03:30;;;;;;;16.80;4.43;;;;;;;24.18;41.66;101901.09;5023951;28;21067;-85
2022/05/14 09:05:58;;;;;;;18.60;4.50;;;;;;;24.07;42.08;101892.03;5022324;28;20037;-85
2022/05/14 09:08:23;;;;;;;18.13;4.70;;;;;;;24.43;40.42;101898.34;5040517;28;20099;-84
2022/05/14 09:11:00;;;;;;;15.45;4.05;;;;;;;24.59;41.04;101894.34;5026136;28;20041;-85
2022/05/14 09:13:27;;;;;;;14.00;4.45;;;;;;;24.64;40.13;101889.97;5024879;28;20056;-85
2022/05/14 09:15:56;;;;;;;13.35;5.00;;;;;;;24.27;40.72;101897.13;5022853;28;20120;-85
2022/05/14 09:18:42;;;;;;;15.52;5.07;;;;;;;24.27;40.36;101892.63;5025651;28;20410;-85
2022/05/14 09:21:19;;;;;;;21.52;4.40;;;;;;;23.97;42.60;101889.09;5046409;28;20033;-85
2022/05/14 09:23:49;;;;;;;10.82;4.07;;;;;;;24.49;41.14;101889.53;5024123;28;20405;-85
2022/05/14 09:26:20;;;;;;;17.38;4.35;;;;;;;24.59;41.45;101895.13;5012666;28;20037;-85
2022/05/14 09:28:49;;;;;;;12.32;4.57;;;;;;;24.51;42.36;101894.63;5024465;28;20069;-85
2022/05/14 09:31:28;;;;;;;13.38;4.57;;;;;;;24.49;41.86;101897.50;5011731;28;20398;-85
2022/05/14 09:34:03;;;;;;;14.10;4.55;;;;;;;24.35;42.42;101888.88;5005753;28;20148;-87
2022/05/14 09:36:31;;;;;;;12.15;4.15;;;;;;;24.64;42.03;101889.97;5024337;28;20116;-84
2022/05/14 09:39:06;;;;;;;12.60;3.60;;;;;;;24.86;41.52;101895.63;5026607;28;20024;-85
2022/05/14 09:41:43;;;;;;;20.95;4.80;;;;;;;24.84;39.90;101891.56;5027112;28;20062;-85
2022/05/14 09:44:15;;;;;;;12.45;4.10;;;;;;;24.28;41.91;101891.59;5021572;28;20761;-85
2022/05/14 09:46:40;;;;;;;17.15;4.28;;;;;;;24.34;42.73;101889.13;5022136;28;20091;-85
2022/05/14 09:49:09;;;;;;;19.98;4.68;;;;;;;24.37;41.51;101896.59;5028431;28;20622;-85
2022/05/14 09:52:00;;;;;;;14.77;4.72;;;;;;;24.45;42.27;101893.66;5010136;28;20041;-85
2022/05/14 09:54:41;;;;;;;14.43;3.83;;;;;;;24.77;42.29;101883.69;5004637;28;20052;-86
2022/05/14 09:57:13;;;;;;;17.15;4.10;;;;;;;24.83;42.24;101879.34;5026102;28;20120;-84
2022/05/14 10:00:01;;;;;;;11.45;3.90;;;;;;;24.82;42.96;101875.84;5010442;28;20116;-85
2022/05/14 10:03:06;;;;;;;17.23;5.45;;;;;;;24.74;41.55;101881.50;5020009;28;20367;-85
2022/05/14 10:06:09;;;;;;;12.85;4.32;;;;;;;24.76;41.93;101886.56;5009669;28;20136;-87
2022/05/14 10:09:02;;;;;;;21.63;5.45;;;;;;;24.78;43.01;101887.16;5010315;28;20493;-85
2022/05/14 10:11:44;;;;;;;21.35;4.35;;;;;;;24.73;41.81;101881.69;5007635;28;20080;-86
2022/05/14 10:14:33;;;;;;;15.97;5.37;;;;;;;25.01;41.61;101881.91;5021913;28;20051;-85
2022/05/14 10:17:15;;;;;;;10.93;3.17;;;;;;;25.03;40.98;101869.25;5021871;28;20044;-85
2022/05/14 10:20:11;;;;;;;11.63;3.90;;;;;;;24.95;41.07;101876.72;5025765;28;20045;-83
2022/05/14 10:28:51;;;;;;;19.25;4.72;;;;;;;24.17;41.51;101876.44;5026372;28;20385;-83
2022/05/14 10:31:17;;;;;;;16.98;3.55;;;;;;;24.36;42.48;101881.75;5025032;28;20061;-83
2022/05/14 10:33:43;;;;;;;14.43;3.95;;;;;;;24.38;43.63;101872.53;5007881;28;20029;-83
2022/05/14 10:36:29;;;;;;;17.77;3.22;;;;;;;24.93;40.93;101871.63;5023941;28;20029;-82
2022/05/14 10:39:04;;;;;;;15.70;3.80;;;;;;;24.92;41.86;101879.81;5006120;28;20041;-82
2022/05/14 10:41:51;;;;;;;14.02;4.50;;;;;;;24.84;39.98;101880.94;5024585;28;21971;-83
2022/05/14 10:44:49;;;;;;;17.92;4.30;;;;;;;24.98;41.31;101882.38;5007750;28;20124;-82
2022/05/14 10:47:17;;;;;;;11.27;3.20;;;;;;;24.93;41.37;101881.44;5003726;28;20033;-82
2022/05/14 10:50:02;;;;;;;14.32;4.00;;;;;;;25.06;41.93;101879.41;5019435;28;20061;-82
2022/05/14 10:52:28;;;;;;;13.27;3.72;;;;;;;25.19;40.95;101875.75;5021816;28;20057;-83
2022/05/14 10:54:54;;;;;;;11.82;4.10;;;;;;;25.14;39.92;101885.41;5024148;28;20043;-83
2022/05/14 10:57:45;;;;;;;11.10;3.30;;;;;;;24.89;40.71;101878.44;5005866;28;20176;-83
2022/05/14 11:00:19;;;;;;;15.85;4.22;;;;;;;25.08;41.65;101873.88;5006507;28;20056;-82
2022/05/14 11:02:55;;;;;;;12.88;3.97;;;;;;;25.34;41.47;101888.59;5005389;28;20021;-82
2022/05/14 11:05:51;;;;;;;11.90;2.85;;;;;;;25.28;38.83;101878.09;5021866;28;20040;-83
2022/05/14 11:08:52;;;;;;;16.13;3.83;;;;;;;24.85;41.81;101878.06;4993450;28;20052;-83
2022/05/14 11:11:31;;;;;;;14.30;3.92;;;;;;;24.65;41.21;101880.19;4951201;28;20031;-85
2022/05/14 11:14:06;;;;;;;13.00;4.47;;;;;;;24.78;40.10;101876.53;4998954;28;20100;-82
2022/05/14 11:16:47;;;;;;;19.88;4.30;;;;;;;25.34;39.94;101864.72;5025536;28;20038;-82
2022/05/14 11:19:33;;;;;;;10.65;3.53;;;;;;;25.28;39.60;101865.63;5004914;28;20038;-82
2022/05/14 11:22:00;;;;;;;16.08;3.97;;;;;;;25.63;40.66;101870.94;5019615;28;20029;-82
2022/05/14 11:24:39;;;;;;;15.18;4.50;;;;;;;25.56;38.94;101872.09;5037820;28;20075;-83
2022/05/14 11:27:08;;;;;;;15.98;3.95;;;;;;;25.35;40.35;101863.66;5034337;28;20041;-82
2022/05/14 11:30:05;;;;;;;11.60;3.35;;;;;;;25.24;39.56;101870.59;5022582;28;20103;-82
2022/05/14 11:32:58;;;;;;;9.85;3.03;;;;;;;24.90;39.20;101872.06;5007812;28;20434;-81
2022/05/14 11:35:23;;;;;;;15.13;3.30;;;;;;;24.83;40.76;101861.56;5021453;28;20053;-82
2022/05/14 11:37:51;;;;;;;12.77;3.35;;;;;;;25.16;40.42;101860.25;5021536;28;20048;-83
2022/05/14 11:40:20;;;;;;;9.52;4.03;;;;;;;25.65;40.19;101865.41;5026234;28;20032;-82
2022/05/14 11:42:52;;;;;;;12.82;3.60;;;;;;;25.54;37.91;101863.56;5022051;28;20030;-83
2022/05/14 11:45:24;;;;;;;8.93;3.22;;;;;;;25.48;38.67;101864.50;5020695;28;20029;-80
2022/05/14 11:48:01;;;;;;;10.43;3.10;;;;;;;25.50;38.76;101860.56;5023937;28;20041;-83
2022/05/14 11:50:47;;;;;;;12.15;2.75;;;;;;;25.41;40.20;101860.13;5024103;28;20121;-83
2022/05/14 11:53:20;;;;;;;15.63;3.03;;;;;;;25.26;39.05;101862.41;5036661;28;20125;-84
2022/05/14 11:55:54;;;;;;;12.95;2.50;;;;;;;25.54;38.30;101858.25;5021896;28;20033;-82
2022/05/14 11:58:22;;;;;;;14.68;4.82;;;;;;;25.78;38.76;101859.88;5005587;28;20033;-83